createdAt,value
2023-03-24T00:00:11.186Z,93.89
2023-03-24T00:02:41.613Z,94.26
2023-03-24T00:05:11.210Z,94.11
2023-03-24T00:07:39.723Z,94.23
2023-03-24T00:10:13.328Z,94.30
2023-03-24T00:12:39.863Z,94.49
2023-03-24T00:15:10.832Z,94.18
2023-03-24T00:17:39.580Z,94.46
2023-03-24T00:20:13.713Z,94.49
2023-03-24T00:22:50.730Z,94.50
2023-03-24T00:25:19.914Z,94.58
2023-03-24T00:27:48.936Z,94.79
2023-03-24T00:30:16.965Z,95.18
2023-03-24T00:32:44.687Z,95.04
2023-03-24T00:35:13.145Z,94.92
2023-03-24T00:37:41.712Z,94.88
2023-03-24T00:40:16.521Z,95.28
2023-03-24T00:42:45.780Z,95.29
2023-03-24T00:45:19.798Z,95.15
2023-03-24T00:47:49.896Z,95.30
2023-03-24T00:50:18.743Z,95.47
2023-03-24T00:52:47.766Z,95.12
2023-03-24T00:55:16.386Z,95.28
2023-03-24T00:57:51.717Z,94.93
2023-03-24T01:00:24.529Z,95.03
2023-03-24T01:02:55.746Z,94.94
2023-03-24T01:05:24.646Z,95.02
2023-03-24T01:07:56.409Z,95.08
2023-03-24T01:10:27.132Z,94.82
2023-03-24T01:12:56.731Z,94.66
2023-03-24T01:15:27.845Z,94.83
2023-03-24T01:17:54.426Z,94.75
2023-03-24T01:20:23.087Z,94.77
2023-03-24T01:22:52.380Z,94.61
2023-03-24T01:25:21.643Z,94.58
2023-03-24T01:27:50.202Z,94.74
2023-03-24T01:30:19.917Z,94.64
2023-03-24T01:32:46.479Z,94.92
2023-03-24T01:35:13.506Z,94.80
2023-03-24T01:37:40.401Z,94.61
2023-03-24T01:40:12.204Z,94.56
2023-03-24T01:42:40.068Z,94.51
2023-03-24T01:45:44.293Z,94.51
2023-03-24T01:48:22.766Z,94.55
2023-03-24T01:51:01.482Z,95.04
2023-03-24T01:53:30.077Z,94.70
2023-03-24T01:55:56.717Z,94.73
2023-03-24T01:58:30.736Z,94.96
2023-03-24T02:01:10.476Z,95.04
2023-03-24T02:04:09.662Z,95.15
2023-03-24T02:06:41.155Z,95.28
2023-03-24T02:09:09.111Z,95.31
2023-03-24T02:11:36.865Z,95.40
2023-03-24T02:14:07.177Z,94.99
2023-03-24T02:17:12.758Z,95.07
2023-03-24T02:20:13.596Z,95.11
2023-03-24T02:23:02.609Z,95.63
2023-03-24T02:25:35.387Z,95.55
2023-03-24T02:28:19.690Z,95.99
2023-03-24T02:31:17.491Z,95.81
2023-03-24T02:34:07.445Z,95.85
2023-03-24T02:36:54.719Z,96.54
2023-03-24T02:39:21.110Z,96.01
2023-03-24T02:42:16.398Z,95.31
2023-03-24T02:44:56.722Z,94.89
2023-03-24T02:47:33.704Z,94.80
2023-03-24T02:50:13.947Z,94.96
2023-03-24T02:52:52.858Z,95.17
2023-03-24T02:55:26.428Z,95.07
2023-03-24T02:58:01.910Z,95.24
2023-03-24T03:01:08.379Z,95.01
2023-03-24T03:03:54.053Z,93.30
2023-03-24T03:06:33.438Z,91.23
2023-03-24T03:09:07.718Z,91.23
2023-03-24T03:11:34.357Z,90.74
2023-03-24T03:14:06.087Z,90.98
2023-03-24T03:16:45.695Z,90.79
2023-03-24T03:19:26.240Z,90.66
2023-03-24T03:21:54.391Z,90.51
2023-03-24T03:24:27.574Z,90.54
2023-03-24T03:27:05.592Z,91.53
2023-03-24T03:29:39.315Z,91.21
2023-03-24T03:32:09.499Z,90.53
2023-03-24T03:34:47.244Z,90.50
2023-03-24T03:37:24.895Z,90.55
2023-03-24T03:40:12.532Z,90.14
2023-03-24T03:42:44.556Z,90.59
2023-03-24T03:45:12.685Z,90.95
2023-03-24T03:47:40.669Z,90.14
2023-03-24T03:50:08.937Z,90.61
2023-03-24T03:52:39.484Z,90.42
2023-03-24T03:55:07.248Z,90.53
2023-03-24T03:57:35.356Z,90.37
2023-03-24T04:00:19.848Z,90.83
2023-03-24T04:03:37.174Z,90.67
2023-03-24T04:06:25.361Z,90.46
2023-03-24T04:09:01.890Z,90.27
2023-03-24T04:12:07.616Z,90.42
2023-03-24T04:14:51.830Z,90.29
2023-03-24T04:17:43.242Z,90.88
2023-03-24T04:20:12.997Z,90.43
2023-03-24T04:22:54.115Z,90.43
2023-03-24T04:25:45.008Z,90.62
2023-03-24T04:28:30.993Z,90.65
2023-03-24T04:31:07.450Z,90.84
2023-03-24T04:33:40.196Z,90.97
2023-03-24T04:36:27.547Z,90.94
2023-03-24T04:39:28.065Z,90.72
2023-03-24T04:41:59.624Z,90.54
2023-03-24T04:44:30.150Z,90.68
2023-03-24T04:47:19.518Z,91.02
2023-03-24T04:50:03.884Z,90.84
2023-03-24T04:52:32.547Z,90.75
2023-03-24T04:55:02.496Z,90.83
2023-03-24T04:57:28.970Z,90.96
2023-03-24T05:00:01.183Z,90.94
2023-03-24T05:02:29.849Z,90.92
2023-03-24T05:05:11.833Z,90.36
2023-03-24T05:07:43.959Z,91.06
2023-03-24T05:10:16.206Z,91.20
2023-03-24T05:12:49.487Z,90.20
2023-03-24T05:15:16.789Z,90.00
2023-03-24T05:17:45.354Z,89.09
2023-03-24T05:20:12.336Z,89.63
2023-03-24T05:22:42.593Z,89.82
2023-03-24T05:25:09.764Z,89.91
2023-03-24T05:27:36.282Z,90.55
2023-03-24T05:30:15.993Z,89.59
2023-03-24T05:32:44.265Z,89.87
2023-03-24T05:35:12.585Z,89.65
2023-03-24T05:37:39.222Z,90.15
2023-03-24T05:40:07.132Z,89.33
2023-03-24T05:42:56.355Z,88.69
2023-03-24T05:45:25.890Z,89.55
2023-03-24T05:47:53.065Z,89.32
2023-03-24T05:50:26.069Z,89.78
2023-03-24T05:52:52.678Z,89.43
2023-03-24T05:55:46.168Z,89.42
2023-03-24T05:58:34.653Z,89.36
2023-03-24T06:01:06.981Z,90.00
2023-03-24T06:03:38.854Z,89.36
2023-03-24T06:06:14.591Z,89.34
2023-03-24T06:08:41.390Z,89.67
2023-03-24T06:11:07.954Z,89.41
2023-03-24T06:13:44.745Z,89.28
2023-03-24T06:16:12.605Z,89.52
2023-03-24T06:18:52.997Z,89.05
2023-03-24T06:21:39.538Z,89.17
2023-03-24T06:24:06.404Z,89.92
2023-03-24T06:26:33.642Z,88.79
2023-03-24T06:29:06.066Z,88.56
2023-03-24T06:31:37.475Z,89.37
2023-03-24T06:34:10.019Z,88.62
2023-03-24T06:36:46.619Z,88.50
2023-03-24T06:39:13.239Z,88.34
2023-03-24T06:41:41.980Z,88.66
2023-03-24T06:44:08.956Z,88.40
2023-03-24T06:46:35.564Z,88.56
2023-03-24T06:49:02.517Z,88.25
2023-03-24T06:51:29.184Z,88.89
2023-03-24T06:53:55.931Z,87.52
2023-03-24T06:56:23.294Z,87.99
2023-03-24T06:58:55.754Z,87.75
2023-03-24T07:01:32.204Z,88.20
2023-03-24T07:04:14.384Z,88.47
2023-03-24T07:07:05.585Z,87.46
2023-03-24T07:09:43.484Z,87.09
2023-03-24T07:12:15.022Z,87.35
2023-03-24T07:14:42.328Z,87.04
2023-03-24T07:17:08.812Z,86.44
2023-03-24T07:19:41.351Z,85.82
2023-03-24T07:22:37.165Z,84.40
2023-03-24T07:25:22.608Z,85.22
2023-03-24T07:27:56.601Z,84.44
2023-03-24T07:30:33.386Z,83.79
2023-03-24T07:33:02.015Z,83.01
2023-03-24T07:35:28.910Z,83.14
2023-03-24T07:38:01.718Z,83.69
2023-03-24T07:40:30.284Z,84.13
2023-03-24T07:43:00.459Z,83.69
2023-03-24T07:45:37.267Z,83.53
2023-03-24T07:48:04.445Z,83.43
2023-03-24T07:50:35.319Z,81.88
2023-03-24T07:53:09.728Z,82.40
2023-03-24T07:55:39.855Z,80.88
2023-03-24T07:58:12.729Z,80.67
2023-03-24T08:00:46.215Z,80.98
2023-03-24T08:03:25.592Z,81.19
2023-03-24T08:06:05.695Z,80.75
2023-03-24T08:08:38.641Z,79.80
2023-03-24T08:11:05.563Z,75.89
2023-03-24T08:13:33.747Z,74.01
2023-03-24T08:16:00.244Z,71.02
2023-03-24T08:18:27.147Z,69.11
2023-03-24T08:20:58.733Z,66.62
2023-03-24T08:23:25.586Z,66.37
2023-03-24T08:25:52.137Z,65.01
2023-03-24T08:28:18.952Z,64.87
2023-03-24T08:30:48.539Z,65.48
2023-03-24T08:33:16.586Z,67.47
2023-03-24T08:35:45.649Z,69.53
2023-03-24T08:38:15.290Z,69.88
2023-03-24T08:40:44.794Z,69.61
2023-03-24T08:43:15.072Z,70.62
2023-03-24T08:45:42.173Z,68.89
2023-03-24T08:48:09.136Z,68.70
2023-03-24T08:50:40.600Z,69.77
2023-03-24T08:53:07.818Z,67.44
2023-03-24T08:55:34.772Z,67.98
2023-03-24T08:58:03.390Z,68.58
2023-03-24T09:00:30.422Z,69.51
2023-03-24T09:02:56.994Z,70.15
2023-03-24T09:05:40.866Z,69.84
2023-03-24T09:08:11.218Z,66.28
2023-03-24T09:10:38.899Z,64.76
2023-03-24T09:13:05.536Z,67.18
2023-03-24T09:15:32.582Z,66.90
2023-03-24T09:17:59.311Z,66.87
2023-03-24T09:20:26.381Z,66.87
2023-03-24T09:22:53.127Z,67.46
2023-03-24T09:25:20.800Z,67.50
2023-03-24T09:27:47.375Z,64.48
2023-03-24T09:30:16.401Z,62.00
2023-03-24T09:32:43.894Z,62.61
2023-03-24T09:35:11.270Z,62.53
2023-03-24T09:37:39.035Z,63.41
2023-03-24T09:40:07.715Z,60.11
2023-03-24T09:42:38.703Z,59.19
2023-03-24T09:45:16.620Z,59.41
2023-03-24T09:47:49.882Z,55.80
2023-03-24T09:50:23.089Z,58.36
2023-03-24T09:52:55.360Z,59.15
2023-03-24T09:55:28.196Z,57.94
2023-03-24T09:58:03.187Z,56.58
2023-03-24T10:00:33.562Z,53.48
2023-03-24T10:03:22.700Z,53.45
2023-03-24T10:05:55.393Z,52.36
2023-03-24T10:08:36.129Z,52.09
2023-03-24T10:11:30.571Z,53.51
2023-03-24T10:14:14.067Z,56.65
2023-03-24T10:16:46.270Z,55.01
2023-03-24T10:19:16.104Z,53.73
2023-03-24T10:21:54.870Z,52.75
2023-03-24T10:24:37.850Z,50.88
2023-03-24T10:27:25.148Z,50.12
2023-03-24T10:29:57.764Z,48.41
2023-03-24T10:32:29.185Z,47.12
2023-03-24T10:35:09.018Z,48.97
2023-03-24T10:37:37.094Z,51.30
2023-03-24T10:40:14.092Z,56.96
2023-03-24T10:42:40.743Z,55.67
2023-03-24T10:45:13.978Z,53.47
2023-03-24T10:47:42.611Z,54.48
2023-03-24T10:50:14.394Z,55.11
2023-03-24T10:52:45.342Z,58.18
2023-03-24T10:55:18.932Z,58.14
2023-03-24T10:57:49.771Z,57.72
2023-03-24T11:00:19.199Z,56.45
2023-03-24T11:02:54.953Z,56.68
2023-03-24T11:05:23.507Z,55.86
2023-03-24T11:07:51.835Z,55.78
2023-03-24T11:10:24.546Z,57.80
2023-03-24T11:12:50.908Z,56.87
2023-03-24T11:15:29.293Z,60.86
2023-03-24T11:18:11.459Z,58.55
2023-03-24T11:20:45.823Z,57.71
2023-03-24T11:23:29.028Z,57.70
2023-03-24T11:26:11.944Z,56.34
2023-03-24T11:28:45.882Z,55.95
2023-03-24T11:31:21.236Z,53.14
2023-03-24T11:34:24.396Z,56.75
2023-03-24T11:37:13.439Z,56.86
2023-03-24T11:39:40.093Z,57.94
2023-03-24T11:42:12.317Z,58.14
2023-03-24T11:44:43.706Z,59.02
2023-03-24T11:47:30.771Z,60.47
2023-03-24T11:50:09.414Z,59.75
2023-03-24T11:52:41.449Z,58.36
2023-03-24T11:55:24.453Z,60.14
2023-03-24T11:57:59.845Z,60.74
2023-03-24T12:00:35.277Z,61.93
2023-03-24T12:03:33.135Z,61.66
2023-03-24T12:06:19.746Z,61.34
2023-03-24T12:08:58.351Z,61.75
2023-03-24T12:11:50.665Z,62.10
2023-03-24T12:14:41.657Z,62.29
2023-03-24T12:17:11.562Z,63.37
2023-03-24T12:19:59.424Z,63.08
2023-03-24T12:23:07.519Z,62.71
2023-03-24T12:25:54.194Z,63.41
2023-03-24T12:28:39.214Z,63.72
2023-03-24T12:31:23.179Z,65.34
2023-03-24T12:34:26.172Z,63.78
2023-03-24T12:37:18.114Z,63.37
2023-03-24T12:40:11.267Z,61.65
2023-03-24T12:42:44.716Z,60.40
2023-03-24T12:45:33.135Z,60.23
2023-03-24T12:48:19.232Z,60.54
2023-03-24T12:50:51.664Z,60.69
2023-03-24T12:53:24.137Z,61.51
2023-03-24T12:56:14.469Z,64.75
2023-03-24T12:58:51.844Z,65.25
2023-03-24T13:01:32.984Z,66.50
2023-03-24T13:04:05.657Z,67.09
2023-03-24T13:06:50.512Z,67.73
2023-03-24T13:09:40.176Z,68.38
2023-03-24T13:12:28.141Z,70.02
2023-03-24T13:15:07.073Z,69.36
2023-03-24T13:17:40.448Z,69.40
2023-03-24T13:20:14.114Z,70.41
2023-03-24T13:22:41.508Z,69.63
2023-03-24T13:25:27.079Z,68.88
2023-03-24T13:27:57.448Z,69.65
2023-03-24T13:30:32.554Z,68.87
2023-03-24T13:33:26.525Z,68.30
2023-03-24T13:36:11.233Z,66.44
2023-03-24T13:38:46.177Z,65.62
2023-03-24T13:41:26.829Z,66.06
2023-03-24T13:44:02.893Z,66.31
2023-03-24T13:46:29.866Z,67.11
2023-03-24T13:48:58.790Z,65.95
2023-03-24T13:51:31.715Z,66.54
2023-03-24T13:54:16.380Z,67.23
2023-03-24T13:57:00.611Z,67.53
2023-03-24T13:59:40.979Z,68.32
2023-03-24T14:02:22.004Z,68.93
2023-03-24T14:05:01.744Z,68.22
2023-03-24T14:07:40.554Z,66.63
2023-03-24T14:10:16.793Z,69.01
2023-03-24T14:13:03.478Z,68.90
2023-03-24T14:15:34.625Z,70.92
2023-03-24T14:18:24.948Z,70.69
2023-03-24T14:20:58.151Z,71.43
2023-03-24T14:23:42.913Z,72.01
2023-03-24T14:26:31.534Z,72.11
2023-03-24T14:28:58.569Z,70.07
2023-03-24T14:31:33.767Z,71.67
2023-03-24T14:34:13.929Z,71.48
2023-03-24T14:36:45.356Z,71.99
2023-03-24T14:39:32.201Z,70.68
2023-03-24T14:41:59.469Z,70.46
2023-03-24T14:44:44.597Z,68.97
2023-03-24T14:47:15.475Z,69.50
2023-03-24T14:49:47.156Z,68.76
2023-03-24T14:52:21.603Z,69.55
2023-03-24T14:54:58.017Z,69.71
2023-03-24T14:57:27.881Z,69.93
2023-03-24T15:00:19.114Z,68.59
2023-03-24T15:02:52.628Z,68.59
2023-03-24T15:05:31.107Z,69.70
2023-03-24T15:08:13.065Z,69.32
2023-03-24T15:10:51.785Z,68.14
2023-03-24T15:13:40.276Z,66.44
2023-03-24T15:16:13.391Z,65.93
2023-03-24T15:19:00.698Z,65.98
2023-03-24T15:21:36.483Z,65.70
2023-03-24T15:24:27.493Z,66.03
2023-03-24T15:26:57.984Z,65.93
2023-03-24T15:29:25.561Z,66.46
2023-03-24T15:31:52.116Z,65.32
2023-03-24T15:34:33.814Z,66.76
2023-03-24T15:37:03.697Z,66.25
2023-03-24T15:39:42.610Z,66.04
2023-03-24T15:42:17.306Z,66.07
2023-03-24T15:44:44.873Z,66.93
2023-03-24T15:47:22.674Z,67.13
2023-03-24T15:49:53.847Z,67.99
2023-03-24T15:52:31.380Z,67.77
2023-03-24T15:55:18.434Z,67.92
2023-03-24T15:57:48.441Z,68.58
2023-03-24T16:00:23.944Z,68.47
2023-03-24T16:02:54.048Z,68.96
2023-03-24T16:05:26.302Z,69.12
2023-03-24T16:08:05.657Z,68.26
2023-03-24T16:10:42.767Z,68.09
2023-03-24T16:13:20.754Z,68.49
2023-03-24T16:16:06.131Z,69.17
2023-03-24T16:18:38.357Z,68.47
2023-03-24T16:21:25.285Z,68.67
2023-03-24T16:23:53.516Z,68.42
2023-03-24T16:26:28.580Z,68.42
2023-03-24T16:29:00.479Z,68.69
2023-03-24T16:31:30.758Z,68.68
2023-03-24T16:33:58.146Z,68.33
2023-03-24T16:36:28.900Z,68.74
2023-03-24T16:38:57.747Z,68.35
2023-03-24T16:41:24.966Z,68.47
2023-03-24T16:43:53.082Z,68.75
2023-03-24T16:46:25.819Z,70.18
2023-03-24T16:48:52.925Z,73.29
2023-03-24T16:51:21.447Z,72.43
2023-03-24T16:53:48.288Z,72.70
2023-03-24T16:56:18.179Z,73.42
2023-03-24T16:58:47.689Z,73.51
2023-03-24T17:01:26.936Z,74.11
2023-03-24T17:03:55.731Z,73.46
2023-03-24T17:06:23.662Z,74.37
2023-03-24T17:08:50.737Z,74.37
2023-03-24T17:11:26.221Z,74.04
2023-03-24T17:13:54.290Z,74.89
2023-03-24T17:16:29.689Z,74.40
2023-03-24T17:19:00.316Z,74.46
2023-03-24T17:21:26.942Z,74.50
2023-03-24T17:23:56.574Z,73.84
2023-03-24T17:26:23.569Z,75.02
2023-03-24T17:28:52.705Z,75.11
2023-03-24T17:31:19.262Z,74.23
2023-03-24T17:33:46.070Z,75.22
2023-03-24T17:36:16.536Z,74.50
2023-03-24T17:38:45.503Z,75.02
2023-03-24T17:41:11.997Z,75.17
2023-03-24T17:43:38.804Z,75.75
2023-03-24T17:46:05.959Z,75.76
2023-03-24T17:48:32.632Z,75.96
2023-03-24T17:50:59.176Z,76.61
2023-03-24T17:53:26.117Z,76.86
2023-03-24T17:55:57.373Z,76.72
2023-03-24T17:58:26.989Z,77.76
2023-03-24T18:00:54.320Z,78.34
2023-03-24T18:03:21.795Z,77.93
2023-03-24T18:05:49.957Z,78.24
2023-03-24T18:08:16.664Z,77.83
2023-03-24T18:10:43.380Z,77.75
2023-03-24T18:13:11.191Z,77.36
2023-03-24T18:15:41.716Z,77.67
2023-03-24T18:18:08.492Z,77.74
2023-03-24T18:20:36.346Z,78.27
2023-03-24T18:23:02.830Z,78.12
2023-03-24T18:25:29.374Z,77.39
2023-03-24T18:27:56.221Z,76.90
2023-03-24T18:30:22.803Z,76.56
2023-03-24T18:32:52.583Z,76.73
2023-03-24T18:35:19.273Z,76.91
2023-03-24T18:37:46.055Z,77.11
2023-03-24T18:40:15.445Z,76.66
2023-03-24T18:42:41.928Z,76.99
2023-03-24T18:45:11.556Z,77.04
2023-03-24T18:47:38.108Z,76.95
2023-03-24T18:50:05.221Z,76.68
2023-03-24T18:52:32.962Z,77.10
2023-03-24T18:55:01.492Z,76.53
2023-03-24T18:57:28.421Z,76.88
2023-03-24T18:59:55.005Z,76.74
2023-03-24T19:02:21.557Z,76.50
2023-03-24T19:04:48.473Z,76.84
2023-03-24T19:07:16.415Z,77.00
2023-03-24T19:09:43.252Z,76.66
2023-03-24T19:12:10.842Z,77.11
2023-03-24T19:14:37.884Z,76.71
2023-03-24T19:17:04.422Z,76.72
2023-03-24T19:19:31.622Z,76.26
2023-03-24T19:21:59.191Z,76.50
2023-03-24T19:24:26.274Z,75.94
2023-03-24T19:26:55.998Z,75.30
2023-03-24T19:29:22.485Z,76.03
2023-03-24T19:31:49.616Z,75.53
2023-03-24T19:34:16.278Z,75.10
2023-03-24T19:36:45.434Z,75.79
2023-03-24T19:39:17.451Z,75.20
2023-03-24T19:41:44.565Z,75.52
2023-03-24T19:44:11.021Z,75.46
2023-03-24T19:46:37.563Z,75.00
2023-03-24T19:49:04.095Z,74.70
2023-03-24T19:51:30.648Z,74.16
2023-03-24T19:53:57.166Z,74.11
2023-03-24T19:56:23.805Z,74.10
2023-03-24T19:58:52.181Z,74.21
2023-03-24T20:01:21.032Z,73.55
2023-03-24T20:03:49.776Z,72.61
2023-03-24T20:06:19.625Z,73.15
2023-03-24T20:08:46.428Z,73.24
2023-03-24T20:11:13.062Z,72.77
2023-03-24T20:13:39.937Z,72.57
2023-03-24T20:16:06.908Z,72.64
2023-03-24T20:18:34.532Z,72.30
2023-03-24T20:21:01.808Z,72.25
2023-03-24T20:23:28.303Z,72.23
2023-03-24T20:25:59.814Z,72.91
2023-03-24T20:28:27.345Z,73.18
2023-03-24T20:31:03.490Z,72.97
2023-03-24T20:33:30.950Z,72.84
2023-03-24T20:35:58.629Z,73.30
2023-03-24T20:38:25.950Z,73.22
2023-03-24T20:41:05.231Z,73.69
2023-03-24T20:43:35.935Z,73.65
2023-03-24T20:46:08.274Z,73.84
2023-03-24T20:48:35.461Z,73.79
2023-03-24T20:51:04.629Z,73.63
2023-03-24T20:53:35.533Z,73.80
2023-03-24T20:56:08.149Z,74.22
2023-03-24T20:58:38.153Z,74.05
2023-03-24T21:01:06.373Z,74.61
2023-03-24T21:03:32.876Z,74.92
2023-03-24T21:05:59.484Z,75.88
2023-03-24T21:08:26.114Z,75.72
2023-03-24T21:10:59.430Z,75.97
2023-03-24T21:13:37.067Z,75.37
2023-03-24T21:16:09.074Z,75.27
2023-03-24T21:18:38.057Z,75.28
2023-03-24T21:21:05.949Z,75.14
2023-03-24T21:23:36.221Z,75.39
2023-03-24T21:26:04.274Z,76.00
2023-03-24T21:28:31.157Z,75.34
2023-03-24T21:30:58.605Z,75.58
2023-03-24T21:33:25.575Z,75.07
2023-03-24T21:35:55.535Z,74.52
2023-03-24T21:38:23.142Z,74.57
2023-03-24T21:40:59.836Z,74.44
2023-03-24T21:43:31.265Z,74.48
2023-03-24T21:45:58.420Z,73.99
2023-03-24T21:48:26.645Z,74.17
2023-03-24T21:50:55.204Z,74.39
2023-03-24T21:53:23.567Z,74.14
2023-03-24T21:55:54.501Z,73.92
2023-03-24T21:58:23.292Z,73.55
2023-03-24T22:00:50.969Z,73.88
2023-03-24T22:03:17.938Z,73.04
2023-03-24T22:05:47.288Z,73.28
2023-03-24T22:08:22.354Z,73.37
2023-03-24T22:10:49.742Z,73.52
2023-03-24T22:13:16.170Z,73.69
2023-03-24T22:15:42.638Z,73.66
2023-03-24T22:18:09.204Z,73.94
2023-03-24T22:20:37.792Z,74.04
2023-03-24T22:23:04.492Z,74.33
2023-03-24T22:25:32.104Z,74.79
2023-03-24T22:27:59.685Z,74.72
2023-03-24T22:30:26.314Z,75.01
2023-03-24T22:32:52.818Z,74.94
2023-03-24T22:35:24.198Z,74.81
2023-03-24T22:37:50.826Z,75.18
2023-03-24T22:40:17.417Z,75.32
2023-03-24T22:42:43.857Z,75.16
2023-03-24T22:45:10.802Z,75.53
2023-03-24T22:47:37.260Z,75.81
2023-03-24T22:50:04.224Z,76.63
2023-03-24T22:52:30.760Z,77.16
2023-03-24T22:54:57.282Z,77.20
2023-03-24T22:57:23.714Z,78.41
2023-03-24T22:59:50.652Z,78.74
2023-03-24T23:02:24.173Z,78.59
2023-03-24T23:04:51.060Z,78.73
2023-03-24T23:07:17.569Z,78.16
2023-03-24T23:09:44.672Z,78.29
2023-03-24T23:12:13.498Z,76.79
2023-03-24T23:14:40.102Z,76.37
2023-03-24T23:17:09.614Z,76.23
2023-03-24T23:19:37.263Z,76.28
2023-03-24T23:22:04.465Z,75.62
2023-03-24T23:24:33.620Z,75.45
2023-03-24T23:27:00.548Z,76.03
2023-03-24T23:29:27.010Z,75.47
2023-03-24T23:31:53.491Z,75.38
2023-03-24T23:34:21.028Z,75.35
2023-03-24T23:36:49.928Z,75.16
2023-03-24T23:39:17.217Z,75.33
2023-03-24T23:41:43.673Z,74.86
2023-03-24T23:44:10.428Z,75.72
2023-03-24T23:46:37.201Z,75.15
2023-03-24T23:49:08.203Z,75.26
2023-03-24T23:51:34.610Z,75.39
2023-03-24T23:54:01.588Z,75.61
2023-03-24T23:56:30.461Z,75.45
2023-03-24T23:58:58.117Z,75.03
